Flight Track Log - Related Links

Times and Time Zones

All times are in EDT time to prevent confusion due to time zone crossing. See the AAL125 flight status page for this flight to view local times or setup timezone preferences in your user account.

Time Position Orientation Groundspeed Altitude Reporting Facility
EDT Latitude Longitude Course Direction KTS MPH feet Rate Location/Type
Tue 11:39:39 AM 32.8833 -97.0500 321° Northwest 174 200 1,200  Level Dallas / Fort Worth TRACON
Tue 11:40:22 AM 32.8500 -97.0500 180° South 221 254 2,300 1,807 Climbing Dallas / Fort Worth TRACON
Tue 11:41:02 AM 32.8019 -97.0761 205° Southwest 247 284 3,700 2,412 Climbing Fort Worth Center
Tue 11:42:00 AM 33.1526 -97.2876 321° Northwest  Level Estimated
Tue 11:42:04 AM 32.7644 -97.1464 238° Southwest 276 318 6,400  Level Fort Worth Center
Tue 11:43:00 AM 33.2378 -97.3711 321° Northwest  Level Estimated
Tue 11:43:06 AM 32.7814 -97.2461 281° West 291 335 9,500  Level Fort Worth Center
Tue 11:44:00 AM 33.3229 -97.4548 321° Northwest  Level Estimated
Tue 11:44:09 AM 32.8617 -97.2775 342° North 312 359 11,300  Level Fort Worth Center
Tue 11:45:11 AM 32.9703 -97.2747 North 364 419 13,600 2,323 Climbing Fort Worth Center
Tue 11:46:13 AM 33.0761 -97.2683 North 383 441 16,100 2,323 Climbing Fort Worth Center
Tue 11:47:15 AM 33.1942 -97.2619 North 394 453 18,400 2,081 Climbing Fort Worth Center
Tue 11:48:17 AM 33.3078 -97.2569 North 408 470 20,400 1,935 Climbing Fort Worth Center
Tue 11:49:19 AM 33.4317 -97.2517 North 412 474 22,400 1,742 Climbing Fort Worth Center
Tue 11:50:21 AM 33.5533 -97.2397 North 426 490 24,000 1,584 Climbing Fort Worth Center
Tue 11:51:24 AM 33.6744 -97.2331 North 433 498 25,700 1,344 Climbing Fort Worth Center
Tue 11:52:26 AM 33.7981 -97.2197 North 444 511 26,800 1,161 Climbing Fort Worth Center
Tue 11:53:28 AM 33.9247 -97.2142 North 450 518 28,100 1,210 Climbing Fort Worth Center
Tue 11:54:30 AM 34.0511 -97.2389 351° North 470 541 29,300 1,548 Climbing Fort Worth Center
Tue 11:55:32 AM 34.1608 -97.3672 316° Northwest 468 539 31,300 1,452 Climbing Fort Worth Center
Tue 11:56:34 AM 34.2511 -97.4742 316° Northwest 458 527 32,300 919 Climbing Fort Worth Center
Tue 11:57:36 AM 34.3414 -97.5839 315° West 454 522 33,200 816 Climbing Fort Worth Center
Tue 11:58:39 AM 34.4322 -97.6933 315° West 455 524 34,000 384 Climbing Fort Worth Center
Tue 11:59:41 AM 34.5219 -97.8011 315° West 455 524 34,000  Level Fort Worth Center
Tue 12:00:43 PM 34.6122 -97.9097 315° West 455 524 34,000  Level Fort Worth Center
Tue 12:01:45 PM 34.7208 -98.0386 316° Northwest 455 524 34,000  Level Fort Worth Center
Tue 12:02:47 PM 34.8094 -98.1469 315° West 455 524 34,000  Level Fort Worth Center
Tue 12:03:49 PM 34.8981 -98.2553 315° West 451 519 34,000  Level Fort Worth Center
Tue 12:04:51 PM 34.9900 -98.3636 316° Northwest 455 524 34,000  Level Fort Worth Center
Tue 12:05:54 PM 35.0781 -98.4728 315° West 454 522 34,000 -48 Level Fort Worth Center
Tue 12:06:56 PM 35.1686 -98.5792 316° Northwest 454 522 33,900 -48 Descending Fort Worth Center
Tue 12:07:58 PM 35.2744 -98.7117 314° West 454 522 33,900  Level Fort Worth Center
Tue 12:09:00 PM 35.3639 -98.8217 315° West 454 522 33,900  Level Fort Worth Center
Tue 12:10:02 PM 35.4531 -98.9317 315° West 453 521 33,900  Level Fort Worth Center
Tue 12:11:04 PM 35.5425 -99.0433 315° West 454 522 33,900  Level Fort Worth Center
Tue 12:12:06 PM 35.6311 -99.1544 314° West 453 521 33,900  Level Fort Worth Center
Tue 12:13:09 PM 35.7200 -99.2656 315° West 451 519 33,900  Level Fort Worth Center
Tue 12:14:11 PM 35.8092 -99.3778 314° West 451 519 33,900  Level Fort Worth Center
Tue 12:15:13 PM 35.8989 -99.4903 315° West 451 519 33,900  Level Fort Worth Center
Tue 12:15:49 PM 35.9511 -99.5592 313° West 452 520 33,900  Level Kansas City Center
Tue 12:16:51 PM 36.0403 -99.6717 314° West 453 521 33,900  Level Kansas City Center
Tue 12:17:53 PM 36.1450 -99.8047 314° West 451 519 33,900  Level Kansas City Center
Tue 12:18:55 PM 36.2292 -99.9192 312° West 449 517 33,900  Level Kansas City Center
Tue 12:19:57 PM 36.3139 -100.0325 313° West 449 517 33,900  Level Kansas City Center
Tue 12:21:00 PM 36.3986 -100.1472 313° West 449 517 33,900  Level Kansas City Center
Tue 12:22:02 PM 36.4825 -100.2625 312° West 449 517 33,900  Level Kansas City Center
Tue 12:23:04 PM 36.5678 -100.3775 313° West 449 517 33,900 48 Level Kansas City Center
Tue 12:24:06 PM 36.6617 -100.5061 312° West 450 518 34,000 48 Climbing Kansas City Center
Tue 12:25:08 PM 36.7547 -100.6353 312° West 450 518 34,000  Level Kansas City Center
Tue 12:26:10 PM 36.8350 -100.7450 312° West 449 517 34,000  Level Kansas City Center
Tue 12:27:12 PM 36.9144 -100.8556 312° West 448 516 34,000  Level Kansas City Center
Tue 12:28:14 PM 37.0064 -100.9844 312° West 447 514 34,000  Level Kansas City Center
Tue 12:29:17 PM 37.0867 -101.0964 312° West 447 514 34,000  Level Kansas City Center
Tue 12:30:19 PM 37.1783 -101.2269 311° West 447 514 34,000  Level Kansas City Center
Tue 12:31:21 PM 37.2583 -101.3372 312° West 447 514 34,000  Level Kansas City Center
Tue 12:32:23 PM 37.3497 -101.4672 312° West 445 512 34,000  Level Kansas City Center
Tue 12:33:25 PM 37.4286 -101.5797 311° West 445 512 34,000  Level Kansas City Center
Tue 12:34:27 PM 37.5214 -101.7100 312° West 445 512 34,000  Level Kansas City Center
Tue 12:35:29 PM 37.6006 -101.8236 311° West 445 512 34,000  Level Kansas City Center
Tue 12:36:31 PM 37.6792 -101.9361 311° West 446 513 34,000  Level Kansas City Center
Tue 12:37:34 PM 37.7708 -102.0686 311° West 446 513 34,000  Level Kansas City Center
Tue 12:38:36 PM 37.8503 -102.1831 311° West 447 514 34,000  Level Kansas City Center
Tue 12:39:38 PM 37.9278 -102.3247 305° West 446 513 34,000  Level Kansas City Center
Tue 12:40:40 PM 37.9567 -102.4658 285° West 435 501 34,000  Level Kansas City Center
Tue 12:41:42 PM 37.9964 -102.6303 287° West 435 501 34,000  Level Kansas City Center
Tue 12:43:12 PM 38.1275 -102.7867 317° Northwest 451 519 34,000  Level Denver Center
Tue 12:44:14 PM 38.2275 -102.9064 317° Northwest 440 506 34,000 -97 Level Denver Center
Tue 12:45:16 PM 38.3117 -103.0081 317° Northwest 440 506 33,800 -968 Descending Denver Center
Tue 12:46:18 PM 38.4078 -103.1247 316° Northwest 428 493 32,000 -1,597 Descending Denver Center
Tue 12:47:20 PM 38.4886 -103.2222 317° Northwest 421 484 30,500 -919 Descending Denver Center
Tue 12:48:22 PM 38.5783 -103.3306 317° Northwest 421 484 30,100 -871 Descending Denver Center
Tue 12:49:24 PM 38.6603 -103.4319 316° Northwest 415 478 28,700 -1,355 Descending Denver Center
Tue 12:50:26 PM 38.7347 -103.5208 317° Northwest 398 458 27,300 -1,790 Descending Denver Center
Tue 12:51:28 PM 38.8267 -103.6333 316° Northwest 387 445 25,000 -1,935 Descending Denver Center
Tue 12:52:30 PM 38.9097 -103.7256 319° Northwest 376 433 23,300 -1,694 Descending Denver Center
Tue 12:53:32 PM 38.9836 -103.8106 318° Northwest 360 414 21,500 -1,680 Descending Denver Center
Tue 12:54:35 PM 39.0564 -103.8925 319° Northwest 352 405 19,800 -1,584 Descending Denver Center
Tue 12:55:37 PM 39.1264 -103.9739 318° Northwest 344 396 18,200 -1,355 Descending Denver Center
Tue 12:56:39 PM 39.1947 -104.0511 319° Northwest 334 384 17,000 -823 Descending Denver Center
Tue 12:57:41 PM 39.2678 -104.1339 319° Northwest 326 375 16,500 -1,161 Descending Denver Center
Tue 12:58:43 PM 39.3436 -104.2053 324° Northwest 316 364 14,600 -1,645 Descending Denver Center
Tue 12:59:45 PM 39.4125 -104.2714 323° Northwest 313 360 13,100 -774 Descending Denver Center
Tue 01:00:47 PM 39.4847 -104.3403 324° Northwest 304 350 13,000 -48 Descending Denver Center
Tue 01:01:49 PM 39.5519 -104.4061 323° Northwest 303 349 13,000  Level Denver Center
Tue 01:02:51 PM 39.6253 -104.4781 323° Northwest 304 350 13,000  Level Denver Center
Tue 01:03:53 PM 39.6936 -104.5439 323° Northwest 312 359 13,000 -432 Level Denver Center
Tue 01:04:56 PM 39.7364 -104.6233 305° West 263 303 12,100 -960 Descending Denver Center
Tue 01:05:58 PM 39.7381 -104.7142 271° West 256 295 11,000 -1,016 Descending Denver Center
Tue 01:07:00 PM 39.7419 -104.7997 273° West 232 267 10,000 -1,403 Descending Denver Center
Tue 01:08:02 PM 39.7789 -104.8594 309° West 233 268 8,100 -1,452 Descending Denver Center
Tue 01:09:04 PM 39.8356 -104.8297 22° Northeast 221 254 7,000 -1,065 Descending Denver Center
Tue 01:10:06 PM 39.8414 -104.7647 83° East 173 199 5,900 -823 Descending Denver Center
Tue 01:11:08 PM 39.8408 -104.7094 91° East 163 188 5,300 -581 Descending Denver Center

Login

Don't have an account? Register now (free) for customized features, flight alerts, and more!